Time;durP1;ratioP1;P1;durP2;ratioP2;P2;SDS_P1;SDS_P2;PMS_P1;PMS_P2;Temp;Humidity;BMP_temperature;BMP_pressure;BME280_temperature;BME280_humidity;BME280_pressure;Samples;Min_cycle;Max_cycle;Signal;HPM_P1;HPM_P2
2022/07/03 00:01:30;;;;;;;;;;;;;;;;;;4910861;28;19963;-63
2022/07/03 00:03:56;;;;;;;;;;;;;;;;;;4885066;29;20129;-64
2022/07/03 00:06:24;;;;;;;;;;;;;;;;;;4895328;29;20986;-63
2022/07/03 00:08:49;;;;;;;;;;;;;;;;;;4883689;29;19934;-63
2022/07/03 00:11:17;;;;;;;;;;;;;;;;;;4869046;29;20065;-62
2022/07/03 00:13:42;;;;;;;;;;;;;;;;;;4914426;28;19927;-63
2022/07/03 00:16:10;;;;;;;;;;;;;;;;;;4894496;29;19962;-63
2022/07/03 00:18:35;;;;;;;;;;;;;;;;;;4916689;28;20010;-63
2022/07/03 00:21:01;;;;;;;;;;;;;;;;;;4914561;28;20012;-62
2022/07/03 00:23:29;;;;;;;;;;;;;;;;;;4877738;29;20612;-63
2022/07/03 00:25:54;;;;;;;;;;;;;;;;;;4883990;29;19930;-63
2022/07/03 00:28:19;;;;;;;;;;;;;;;;;;4896060;29;19971;-63
2022/07/03 00:30:45;;;;;;;;;;;;;;;;;;4911678;28;20009;-63
2022/07/03 00:33:10;;;;;;;;;;;;;;;;;;4894238;29;19923;-63
2022/07/03 00:35:35;;;;;;;;;;;;;;;;;;4882843;29;20075;-63
2022/07/03 00:38:02;;;;;;;;;;;;;;;;;;4916449;28;20106;-63
2022/07/03 00:40:28;;;;;;;;;;;;;;;;;;4916174;28;20406;-63
2022/07/03 00:42:53;;;;;;;;;;;;;;;;;;4895216;29;19931;-63
2022/07/03 00:45:23;;;;;;;;;;;;;;;;;;4911808;28;19919;-63
2022/07/03 00:47:51;;;;;;;;;;;;;;;;;;4888284;29;19923;-63
2022/07/03 00:50:16;;;;;;;;;;;;;;;;;;4883273;29;19949;-63
2022/07/03 00:52:44;;;;;;;;;;;;;;;;;;4916962;28;20454;-64
2022/07/03 00:55:11;;;;;;;;;;;;;;;;;;4883021;29;20763;-64
2022/07/03 00:57:39;;;;;;;;;;;;;;;;;;4910310;28;20831;-64
2022/07/03 01:00:07;;;;;;;;;;;;;;;;;;4914477;28;19923;-65
2022/07/03 01:02:33;;;;;;;;;;;;;;;;;;4912680;28;19970;-63
2022/07/03 01:05:00;;;;;;;;;;;;;;;;;;4896867;29;20003;-63
2022/07/03 01:07:26;;;;;;;;;;;;;;;;;;4911917;28;19939;-63
2022/07/03 01:09:53;;;;;;;;;;;;;;;;;;4881631;29;19923;-64
2022/07/03 01:12:21;;;;;;;;;;;;;;;;;;4885234;29;20649;-63
2022/07/03 01:14:46;;;;;;;;;;;;;;;;;;4882723;29;19930;-64
2022/07/03 01:17:11;;;;;;;;;;;;;;;;;;4897088;29;19919;-63
2022/07/03 01:19:46;;;;;;;;;;;;;;;;;;4864554;29;19919;-63
2022/07/03 01:22:13;;;;;;;;;;;;;;;;;;4908440;28;19927;-64
2022/07/03 01:24:39;;;;;;;;;;;;;;;;;;4881223;29;20366;-64
2022/07/03 01:27:09;;;;;;;;;;;;;;;;;;4883307;29;19967;-63
2022/07/03 01:29:34;;;;;;;;;;;;;;;;;;4885170;29;19927;-63
2022/07/03 01:31:59;;;;;;;;;;;;;;;;;;4881279;29;19927;-63
2022/07/03 01:34:24;;;;;;;;;;;;;;;;;;4879257;29;19927;-63
2022/07/03 01:36:49;;;;;;;;;;;;;;;;;;4881826;29;19930;-63
2022/07/03 01:39:15;;;;;;;;;;;;;;;;;;4913045;28;19923;-64
2022/07/03 01:41:43;;;;;;;;;;;;;;;;;;4910408;28;19973;-63
2022/07/03 01:44:08;;;;;;;;;;;;;;;;;;4880607;29;20875;-64
2022/07/03 01:46:33;;;;;;;;;;;;;;;;;;4909261;28;19927;-63
2022/07/03 01:49:01;;;;;;;;;;;;;;;;;;4881142;29;20364;-63
2022/07/03 01:51:26;;;;;;;;;;;;;;;;;;4914632;28;19922;-63
2022/07/03 01:53:51;;;;;;;;;;;;;;;;;;4907154;28;19978;-63
2022/07/03 01:56:19;;;;;;;;;;;;;;;;;;4881945;29;20295;-63
2022/07/03 01:58:47;;;;;;;;;;;;;;;;;;4911720;28;19919;-63
2022/07/03 02:01:21;;;;;;;;;;;;;;;;;;4911704;28;19945;-64
2022/07/03 02:03:48;;;;;;;;;;;;;;;;;;4894510;29;19934;-62
2022/07/03 02:06:14;;;;;;;;;;;;;;;;;;4894297;29;19949;-65
2022/07/03 02:08:39;;;;;;;;;;;;;;;;;;4887238;29;20961;-64
2022/07/03 02:11:07;;;;;;;;;;;;;;;;;;4917614;28;19993;-64
2022/07/03 02:13:32;;;;;;;;;;;;;;;;;;4899486;29;20734;-66
2022/07/03 02:15:58;;;;;;;;;;;;;;;;;;4913653;28;20418;-67
2022/07/03 02:18:23;;;;;;;;;;;;;;;;;;4908143;28;19966;-67
2022/07/03 02:20:51;;;;;;;;;;;;;;;;;;4893726;29;20414;-67
2022/07/03 02:23:17;;;;;;;;;;;;;;;;;;4912112;28;19929;-67
2022/07/03 02:25:42;;;;;;;;;;;;;;;;;;4917534;28;19923;-67
2022/07/03 02:28:08;;;;;;;;;;;;;;;;;;4884339;29;19938;-67
2022/07/03 02:30:33;;;;;;;;;;;;;;;;;;4912374;28;19971;-67
2022/07/03 02:32:58;;;;;;;;;;;;;;;;;;4884557;29;19926;-66
2022/07/03 02:35:24;;;;;;;;;;;;;;;;;;4916280;28;19918;-66
2022/07/03 02:37:49;;;;;;;;;;;;;;;;;;4915401;28;19923;-68
2022/07/03 02:40:15;;;;;;;;;;;;;;;;;;4917847;28;19923;-65
2022/07/03 02:42:40;;;;;;;;;;;;;;;;;;4882109;29;19927;-66
2022/07/03 02:45:05;;;;;;;;;;;;;;;;;;4916533;28;19995;-66
2022/07/03 02:47:33;;;;;;;;;;;;;;;;;;4913647;28;20444;-65
2022/07/03 02:49:58;;;;;;;;;;;;;;;;;;4915365;28;20532;-67
2022/07/03 02:52:24;;;;;;;;;;;;;;;;;;4888490;29;19939;-67
2022/07/03 02:54:49;;;;;;;;;;;;;;;;;;4920385;28;19923;-67
2022/07/03 02:57:15;;;;;;;;;;;;;;;;;;4887903;29;20018;-66
2022/07/03 02:59:40;;;;;;;;;;;;;;;;;;4919858;28;19958;-66
2022/07/03 03:02:06;;;;;;;;;;;;;;;;;;4900799;29;19963;-67
2022/07/03 03:04:32;;;;;;;;;;;;;;;;;;4920723;28;19919;-66
2022/07/03 03:06:57;;;;;;;;;;;;;;;;;;4892317;29;20038;-66
2022/07/03 03:09:22;;;;;;;;;;;;;;;;;;4922693;28;19919;-67
2022/07/03 03:11:48;;;;;;;;;;;;;;;;;;4901886;29;19923;-68
2022/07/03 03:14:13;;;;;;;;;;;;;;;;;;4890271;29;20038;-68
2022/07/03 03:16:39;;;;;;;;;;;;;;;;;;4891011;29;21130;-68
2022/07/03 03:19:04;;;;;;;;;;;;;;;;;;4890557;29;19923;-68
2022/07/03 03:21:29;;;;;;;;;;;;;;;;;;4886320;29;19923;-68
2022/07/03 03:23:54;;;;;;;;;;;;;;;;;;4905315;29;19923;-67
2022/07/03 03:26:20;;;;;;;;;;;;;;;;;;4919216;28;19944;-66
2022/07/03 03:28:45;;;;;;;;;;;;;;;;;;4920527;28;20323;-66
2022/07/03 03:31:11;;;;;;;;;;;;;;;;;;4890497;29;19971;-66
2022/07/03 03:33:36;;;;;;;;;;;;;;;;;;4889643;29;19958;-67
2022/07/03 03:36:01;;;;;;;;;;;;;;;;;;4890450;29;20062;-67
2022/07/03 03:38:26;;;;;;;;;;;;;;;;;;4890440;29;19979;-66
2022/07/03 03:40:52;;;;;;;;;;;;;;;;;;4898735;29;20029;-67
2022/07/03 03:43:17;;;;;;;;;;;;;;;;;;4885899;29;19935;-66
2022/07/03 03:45:42;;;;;;;;;;;;;;;;;;4919691;28;19927;-65
2022/07/03 03:48:08;;;;;;;;;;;;;;;;;;4900944;29;19925;-66
2022/07/03 03:50:33;;;;;;;;;;;;;;;;;;4921827;28;20615;-65
2022/07/03 03:52:59;;;;;;;;;;;;;;;;;;4902049;29;20430;-66
2022/07/03 03:55:26;;;;;;;;;;;;;;;;;;4919453;28;19975;-66
2022/07/03 03:57:52;;;;;;;;;;;;;;;;;;4899888;29;20425;-67
2022/07/03 04:00:17;;;;;;;;;;;;;;;;;;4885634;29;19934;-65
2022/07/03 04:02:43;;;;;;;;;;;;;;;;;;4918766;28;19927;-67
2022/07/03 04:05:08;;;;;;;;;;;;;;;;;;4888739;29;19922;-67
2022/07/03 04:07:33;;;;;;;;;;;;;;;;;;4889721;29;19922;-66
2022/07/03 04:09:59;;;;;;;;;;;;;;;;;;4919869;28;19942;-67
2022/07/03 04:12:24;;;;;;;;;;;;;;;;;;4884302;29;20294;-67
2022/07/03 04:14:49;;;;;;;;;;;;;;;;;;4891564;29;20058;-65
2022/07/03 04:17:15;;;;;;;;;;;;;;;;;;4886278;29;20534;-66
2022/07/03 04:19:41;;;;;;;;;;;;;;;;;;4888827;29;19985;-65
2022/07/03 04:22:10;;;;;;;;;;;;;;;;;;4919431;28;20450;-66
2022/07/03 04:24:35;;;;;;;;;;;;;;;;;;4917740;28;20228;-68
2022/07/03 04:27:00;;;;;;;;;;;;;;;;;;4899151;29;19926;-67
2022/07/03 04:29:26;;;;;;;;;;;;;;;;;;4920120;28;21811;-68
2022/07/03 04:31:51;;;;;;;;;;;;;;;;;;4889821;29;19919;-67
2022/07/03 04:34:16;;;;;;;;;;;;;;;;;;4919373;28;19941;-66
2022/07/03 04:36:42;;;;;;;;;;;;;;;;;;4884175;29;19923;-67
2022/07/03 04:39:07;;;;;;;;;;;;;;;;;;4887163;29;20446;-67
2022/07/03 04:41:32;;;;;;;;;;;;;;;;;;4917335;28;19927;-68
2022/07/03 04:43:58;;;;;;;;;;;;;;;;;;4899575;29;20316;-70
2022/07/03 04:46:23;;;;;;;;;;;;;;;;;;4887335;29;20052;-68
2022/07/03 04:48:49;;;;;;;;;;;;;;;;;;4885134;29;19961;-70
2022/07/03 04:51:14;;;;;;;;;;;;;;;;;;4888862;29;21821;-67
2022/07/03 04:53:40;;;;;;;;;;;;;;;;;;4887791;29;19934;-67
2022/07/03 04:56:05;;;;;;;;;;;;;;;;;;4885461;29;21060;-68
2022/07/03 04:58:31;;;;;;;;;;;;;;;;;;4911189;28;20765;-68
2022/07/03 05:00:57;;;;;;;;;;;;;;;;;;4900605;29;20013;-68
2022/07/03 05:03:22;;;;;;;;;;;;;;;;;;4881636;29;19946;-67
2022/07/03 05:05:47;;;;;;;;;;;;;;;;;;4914471;28;21747;-69
2022/07/03 05:08:15;;;;;;;;;;;;;;;;;;4917128;28;20303;-68
2022/07/03 05:10:42;;;;;;;;;;;;;;;;;;4919724;28;19968;-67
2022/07/03 05:13:07;;;;;;;;;;;;;;;;;;4909761;28;20271;-67
2022/07/03 05:15:33;;;;;;;;;;;;;;;;;;4896473;29;19930;-68
2022/07/03 05:17:58;;;;;;;;;;;;;;;;;;4915973;28;20157;-68
2022/07/03 05:20:24;;;;;;;;;;;;;;;;;;4919616;28;19927;-68
2022/07/03 05:22:49;;;;;;;;;;;;;;;;;;4894675;29;20332;-69
2022/07/03 05:25:15;;;;;;;;;;;;;;;;;;4917874;28;19967;-68
2022/07/03 05:27:40;;;;;;;;;;;;;;;;;;4913719;28;19929;-69
2022/07/03 05:30:06;;;;;;;;;;;;;;;;;;4886325;29;19919;-67
2022/07/03 05:32:31;;;;;;;;;;;;;;;;;;4921231;28;19990;-68
2022/07/03 05:34:56;;;;;;;;;;;;;;;;;;4916369;28;20939;-69
2022/07/03 05:37:22;;;;;;;;;;;;;;;;;;4914882;28;20721;-69
2022/07/03 05:39:47;;;;;;;;;;;;;;;;;;4916710;28;19975;-69
2022/07/03 05:42:13;;;;;;;;;;;;;;;;;;4914742;28;21827;-67
2022/07/03 05:44:38;;;;;;;;;;;;;;;;;;4887535;29;19958;-64
2022/07/03 05:47:03;;;;;;;;;;;;;;;;;;4880326;29;21858;-64
2022/07/03 05:49:29;;;;;;;;;;;;;;;;;;4902263;29;20031;-65
2022/07/03 05:51:54;;;;;;;;;;;;;;;;;;4884581;29;19934;-67
2022/07/03 05:54:22;;;;;;;;;;;;;;;;;;4890001;29;19982;-67
2022/07/03 05:56:47;;;;;;;;;;;;;;;;;;4921494;28;19923;-64
2022/07/03 05:59:13;;;;;;;;;;;;;;;;;;4923129;28;19930;-65
2022/07/03 06:01:41;;;;;;;;;;;;;;;;;;4918377;28;19923;-64
2022/07/03 06:04:06;;;;;;;;;;;;;;;;;;4894182;29;20312;-64
2022/07/03 06:06:31;;;;;;;;;;;;;;;;;;4922514;28;20014;-67
2022/07/03 06:08:57;;;;;;;;;;;;;;;;;;4905134;29;19923;-66
2022/07/03 06:11:22;;;;;;;;;;;;;;;;;;4887715;29;21050;-65
2022/07/03 06:13:47;;;;;;;;;;;;;;;;;;4882631;29;19931;-65
2022/07/03 06:16:12;;;;;;;;;;;;;;;;;;4885640;29;19929;-67
2022/07/03 06:18:38;;;;;;;;;;;;;;;;;;4881331;29;19926;-66
2022/07/03 06:21:03;;;;;;;;;;;;;;;;;;4903144;29;20104;-66
2022/07/03 06:23:28;;;;;;;;;;;;;;;;;;4916909;28;19923;-67
2022/07/03 06:25:54;;;;;;;;;;;;;;;;;;4896241;28;19932;-65
2022/07/03 06:30:54;;;;;;;;;;;;;;;;;;5018909;23;19934;-67
2022/07/03 06:33:20;;;;;;;;;;;;;;;;;;4931143;28;19934;-67
2022/07/03 06:35:45;;;;;;;;;;;;;;;;;;4915419;28;19922;-67
2022/07/03 06:38:10;;;;;;;;;;;;;;;;;;4928558;28;20009;-66
2022/07/03 06:40:51;;;;;;;;;;;;;;;;;;4915080;28;19930;-67
2022/07/03 06:43:16;;;;;;;;;;;;;;;;;;4910448;28;21289;-68
2022/07/03 06:45:42;;;;;;;;;;;;;;;;;;4915541;28;19923;-69
2022/07/03 06:48:07;;;;;;;;;;;;;;;;;;4915442;28;19922;-68
2022/07/03 06:50:35;;;;;;;;;;;;;;;;;;4915638;28;19922;-65
2022/07/03 06:53:00;;;;;;;;;;;;;;;;;;4921195;28;19937;-65
2022/07/03 06:55:26;;;;;;;;;;;;;;;;;;4919881;28;19958;-66
2022/07/03 06:57:51;;;;;;;;;;;;;;;;;;4917489;28;19930;-70
2022/07/03 07:00:17;;;;;;;;;;;;;;;;;;4929404;28;19919;-65
2022/07/03 07:05:59;;;;;;;;;;;;;;;;;;4912519;28;19989;-67
2022/07/03 07:08:24;;;;;;;;;;;;;;;;;;4908627;28;20370;-64
2022/07/03 07:10:50;;;;;;;;;;;;;;;;;;4912114;28;19926;-66
2022/07/03 07:13:15;;;;;;;;;;;;;;;;;;4929316;28;19926;-69
2022/07/03 07:15:40;;;;;;;;;;;;;;;;;;4913682;28;20297;-69
2022/07/03 07:21:22;;;;;;;;;;;;;;;;;;4914266;28;20184;-66
2022/07/03 07:23:47;;;;;;;;;;;;;;;;;;4916845;28;20281;-68
2022/07/03 07:26:12;;;;;;;;;;;;;;;;;;4914593;28;19966;-67
2022/07/03 07:28:38;;;;;;;;;;;;;;;;;;4924428;28;20626;-66
2022/07/03 07:31:03;;;;;;;;;;;;;;;;;;4913394;28;19931;-65
2022/07/03 07:33:29;;;;;;;;;;;;;;;;;;4913455;28;19961;-67
2022/07/03 07:35:54;;;;;;;;;;;;;;;;;;4917006;28;19968;-67
2022/07/03 07:38:20;;;;;;;;;;;;;;;;;;4920738;28;20398;-69
2022/07/03 07:40:46;;;;;;;;;;;;;;;;;;4918909;28;19938;-66
2022/07/03 07:43:11;;;;;;;;;;;;;;;;;;4915539;28;20117;-66
2022/07/03 07:45:39;;;;;;;;;;;;;;;;;;4916729;28;20638;-68
2022/07/03 07:53:57;;;;;;;;;;;;;;;;;;4923931;28;19942;-73
2022/07/03 07:56:28;;;;;;;;;;;;;;;;;;4917813;28;19922;-72
2022/07/03 07:58:53;;;;;;;;;;;;;;;;;;4932805;28;20616;-70
2022/07/03 08:06:47;;;;;;;;;;;;;;;;;;4919564;28;19918;-66
2022/07/03 08:09:16;;;;;;;;;;;;;;;;;;4919927;28;19922;-67
2022/07/03 08:11:42;;;;;;;;;;;;;;;;;;4915016;28;20405;-67
2022/07/03 08:14:10;;;;;;;;;;;;;;;;;;4914642;28;20471;-67
2022/07/03 08:16:35;;;;;;;;;;;;;;;;;;4915829;28;19929;-67
2022/07/03 08:19:00;;;;;;;;;;;;;;;;;;4918752;28;20412;-68
2022/07/03 08:21:26;;;;;;;;;;;;;;;;;;4919091;28;19926;-66
2022/07/03 08:27:08;;;;;;;;;;;;;;;;;;4917497;28;20459;-64
2022/07/03 08:29:34;;;;;;;;;;;;;;;;;;4909487;28;19934;-71
2022/07/03 08:31:59;;;;;;;;;;;;;;;;;;4899970;28;19923;-69
2022/07/03 08:34:37;;;;;;;;;;;;;;;;;;4921041;28;19923;-70
2022/07/03 08:37:02;;;;;;;;;;;;;;;;;;4923557;28;19957;-66
2022/07/03 08:39:32;;;;;;;;;;;;;;;;;;4924295;29;19922;-71
2022/07/03 08:41:58;;;;;;;;;;;;;;;;;;4921783;28;19977;-71
2022/07/03 08:44:23;;;;;;;;;;;;;;;;;;4916713;28;20633;-71
2022/07/03 08:50:07;;;;;;;;;;;;;;;;;;4922163;28;19984;-67
2022/07/03 08:52:32;;;;;;;;;;;;;;;;;;4920008;28;20343;-67
2022/07/03 08:54:58;;;;;;;;;;;;;;;;;;4919349;28;19922;-72
2022/07/03 09:00:41;;;;;;;;;;;;;;;;;;4924895;29;20013;-70
2022/07/03 09:03:06;;;;;;;;;;;;;;;;;;4914302;28;19949;-71
2022/07/03 09:05:32;;;;;;;;;;;;;;;;;;4918928;28;20472;-71
2022/07/03 09:07:57;;;;;;;;;;;;;;;;;;4918836;28;20044;-67
2022/07/03 09:10:25;;;;;;;;;;;;;;;;;;4920621;28;19922;-70
2022/07/03 09:12:50;;;;;;;;;;;;;;;;;;4919866;28;20432;-68
2022/07/03 09:15:16;;;;;;;;;;;;;;;;;;4916049;28;19923;-68
2022/07/03 09:17:44;;;;;;;;;;;;;;;;;;4915589;28;21219;-73
2022/07/03 09:20:09;;;;;;;;;;;;;;;;;;4918005;28;19922;-70
2022/07/03 09:22:34;;;;;;;;;;;;;;;;;;4933080;28;20529;-65
2022/07/03 09:28:37;;;;;;;;;;;;;;;;;;4920479;28;19925;-72
2022/07/03 09:31:03;;;;;;;;;;;;;;;;;;4919262;28;19934;-73
2022/07/03 09:36:24;;;;;;;;;;;;;;;;;;4922318;28;20394;-72
2022/07/03 09:38:52;;;;;;;;;;;;;;;;;;4918100;28;19926;-71
2022/07/03 09:41:27;;;;;;;;;;;;;;;;;;4920906;28;20397;-68
2022/07/03 09:43:52;;;;;;;;;;;;;;;;;;4916250;28;20270;-70
2022/07/03 09:52:51;;;;;;;;;;;;;;;;;;4919931;28;19924;-71
2022/07/03 09:55:17;;;;;;;;;;;;;;;;;;4929429;28;20178;-69
2022/07/03 09:57:45;;;;;;;;;;;;;;;;;;4918331;28;20000;-66
2022/07/03 10:00:13;;;;;;;;;;;;;;;;;;4917947;28;20025;-69
2022/07/03 10:02:41;;;;;;;;;;;;;;;;;;4903596;28;20267;-72
2022/07/03 10:05:06;;;;;;;;;;;;;;;;;;4916337;28;19919;-72
2022/07/03 10:07:32;;;;;;;;;;;;;;;;;;4899794;29;19969;-74
2022/07/03 10:09:57;;;;;;;;;;;;;;;;;;4931412;28;19919;-65
2022/07/03 10:12:22;;;;;;;;;;;;;;;;;;4915086;28;20001;-67
2022/07/03 10:14:51;;;;;;;;;;;;;;;;;;4918283;28;19946;-67
2022/07/03 10:17:16;;;;;;;;;;;;;;;;;;4917952;28;19933;-70
2022/07/03 10:22:33;;;;;;;;;;;;;;;;;;4916490;28;19923;-71
2022/07/03 10:24:58;;;;;;;;;;;;;;;;;;4915819;28;19976;-69
2022/07/03 10:27:24;;;;;;;;;;;;;;;;;;4915851;28;19929;-70
2022/07/03 10:29:49;;;;;;;;;;;;;;;;;;4916170;28;19972;-70
2022/07/03 10:32:19;;;;;;;;;;;;;;;;;;4919522;28;19923;-68
2022/07/03 10:34:47;;;;;;;;;;;;;;;;;;4916901;28;20379;-68
2022/07/03 10:46:00;;;;;;;;;;;;;;;;;;4917596;28;19922;-71
2022/07/03 10:48:26;;;;;;;;;;;;;;;;;;4913343;28;19942;-72
2022/07/03 10:50:54;;;;;;;;;;;;;;;;;;4918560;28;19970;-71
2022/07/03 10:53:19;;;;;;;;;;;;;;;;;;4902361;29;19919;-68
2022/07/03 10:55:46;;;;;;;;;;;;;;;;;;4917124;28;19927;-68
2022/07/03 10:58:12;;;;;;;;;;;;;;;;;;4900250;29;19977;-71
2022/07/03 11:00:37;;;;;;;;;;;;;;;;;;4913198;28;19919;-68
2022/07/03 11:09:35;;;;;;;;;;;;;;;;;;4917942;28;19929;-66
2022/07/03 11:12:03;;;;;;;;;;;;;;;;;;4914493;28;20382;-65
2022/07/03 11:14:31;;;;;;;;;;;;;;;;;;4917894;28;20354;-66
2022/07/03 11:16:57;;;;;;;;;;;;;;;;;;4920842;28;19922;-71
2022/07/03 11:19:30;;;;;;;;;;;;;;;;;;4922825;28;20725;-66
2022/07/03 11:21:57;;;;;;;;;;;;;;;;;;4920094;28;19929;-65
2022/07/03 11:24:22;;;;;;;;;;;;;;;;;;4901026;29;20306;-66
2022/07/03 11:26:50;;;;;;;;;;;;;;;;;;4921966;28;19925;-67
2022/07/03 11:29:15;;;;;;;;;;;;;;;;;;4920613;28;20525;-63
2022/07/03 11:34:59;;;;;;;;;;;;;;;;;;4921916;28;20656;-66
2022/07/03 11:40:52;;;;;;;;;;;;;;;;;;4920465;28;21644;-63
2022/07/03 11:43:20;;;;;;;;;;;;;;;;;;4920044;28;19927;-72
2022/07/03 11:45:45;;;;;;;;;;;;;;;;;;4920127;28;19930;-68
2022/07/03 11:48:11;;;;;;;;;;;;;;;;;;4923247;28;19930;-66
2022/07/03 11:50:41;;;;;;;;;;;;;;;;;;4919527;28;19930;-66
2022/07/03 11:55:53;;;;;;;;;;;;;;;;;;4918989;28;20354;-65
2022/07/03 11:58:21;;;;;;;;;;;;;;;;;;4919230;28;20214;-67
2022/07/03 12:00:50;;;;;;;;;;;;;;;;;;4922734;28;20416;-73
2022/07/03 12:03:15;;;;;;;;;;;;;;;;;;4918872;28;19964;-66
2022/07/03 12:05:40;;;;;;;;;;;;;;;;;;4916567;28;20360;-71
2022/07/03 12:11:22;;;;;;;;;;;;;;;;;;4921548;28;19995;-69
2022/07/03 12:13:50;;;;;;;;;;;;;;;;;;4901042;29;19923;-65
2022/07/03 12:16:18;;;;;;;;;;;;;;;;;;4917275;28;19923;-64
2022/07/03 12:18:43;;;;;;;;;;;;;;;;;;4917863;28;20511;-68
2022/07/03 12:21:09;;;;;;;;;;;;;;;;;;4920939;28;20426;-69
2022/07/03 12:23:34;;;;;;;;;;;;;;;;;;4905897;29;19971;-71
2022/07/03 12:25:59;;;;;;;;;;;;;;;;;;4919976;28;19926;-70
2022/07/03 12:28:25;;;;;;;;;;;;;;;;;;4918983;28;19923;-65
2022/07/03 12:30:52;;;;;;;;;;;;;;;;;;4905126;28;19930;-69
2022/07/03 12:36:34;;;;;;;;;;;;;;;;;;4921239;28;19970;-70
2022/07/03 12:39:00;;;;;;;;;;;;;;;;;;4918431;28;19959;-66
2022/07/03 12:41:25;;;;;;;;;;;;;;;;;;4918437;28;20491;-71
2022/07/03 12:43:50;;;;;;;;;;;;;;;;;;4916076;28;19933;-66
2022/07/03 12:46:18;;;;;;;;;;;;;;;;;;4917824;28;19918;-70
2022/07/03 12:48:43;;;;;;;;;;;;;;;;;;4921295;28;19929;-67
2022/07/03 12:51:09;;;;;;;;;;;;;;;;;;4918844;28;20524;-67
2022/07/03 12:53:34;;;;;;;;;;;;;;;;;;4919603;28;19922;-70
2022/07/03 13:01:41;;;;;;;;;;;;;;;;;;4919836;28;20323;-75
2022/07/03 13:04:08;;;;;;;;;;;;;;;;;;4916522;28;20109;-74
2022/07/03 13:06:33;;;;;;;;;;;;;;;;;;4921233;28;19930;-72
2022/07/03 13:08:58;;;;;;;;;;;;;;;;;;4904796;28;20003;-73
2022/07/03 13:11:29;;;;;;;;;;;;;;;;;;4921610;28;20121;-67
2022/07/03 13:13:55;;;;;;;;;;;;;;;;;;4920540;28;20298;-67
2022/07/03 13:16:20;;;;;;;;;;;;;;;;;;4905394;28;19925;-73
2022/07/03 13:22:04;;;;;;;;;;;;;;;;;;4922291;28;19953;-72
2022/07/03 13:24:30;;;;;;;;;;;;;;;;;;4904444;28;20398;-70
2022/07/03 13:26:56;;;;;;;;;;;;;;;;;;4923400;28;19930;-72
2022/07/03 13:29:23;;;;;;;;;;;;;;;;;;4922488;28;20392;-72
2022/07/03 13:31:49;;;;;;;;;;;;;;;;;;4919626;28;19922;-72
2022/07/03 13:34:17;;;;;;;;;;;;;;;;;;4919583;28;20382;-71
2022/07/03 13:36:45;;;;;;;;;;;;;;;;;;4917673;28;19930;-71
2022/07/03 13:39:11;;;;;;;;;;;;;;;;;;4921054;28;19933;-72
2022/07/03 13:41:36;;;;;;;;;;;;;;;;;;4919484;28;20266;-71
2022/07/03 13:44:01;;;;;;;;;;;;;;;;;;4920994;28;19937;-74
2022/07/03 13:46:27;;;;;;;;;;;;;;;;;;4922240;28;19923;-72
2022/07/03 13:48:52;;;;;;;;;;;;;;;;;;4922305;28;19922;-70
2022/07/03 13:51:18;;;;;;;;;;;;;;;;;;4924224;28;19977;-69
2022/07/03 13:53:43;;;;;;;;;;;;;;;;;;4916048;28;19923;-69
2022/07/03 13:56:08;;;;;;;;;;;;;;;;;;4901740;29;19985;-71
2022/07/03 13:58:34;;;;;;;;;;;;;;;;;;4920539;28;19922;-71
2022/07/03 14:01:01;;;;;;;;;;;;;;;;;;4925260;28;20020;-70
2022/07/03 14:03:28;;;;;;;;;;;;;;;;;;4919998;28;20621;-70
2022/07/03 14:05:56;;;;;;;;;;;;;;;;;;4920560;28;19927;-73
2022/07/03 14:08:22;;;;;;;;;;;;;;;;;;4915833;28;19926;-72
2022/07/03 14:10:47;;;;;;;;;;;;;;;;;;4916591;28;19918;-69
2022/07/03 14:13:13;;;;;;;;;;;;;;;;;;4918166;28;19934;-62
2022/07/03 14:15:38;;;;;;;;;;;;;;;;;;4918340;28;19926;-67
2022/07/03 14:18:06;;;;;;;;;;;;;;;;;;4920682;28;20923;-66
2022/07/03 14:20:31;;;;;;;;;;;;;;;;;;4917135;28;19930;-66
2022/07/03 14:22:57;;;;;;;;;;;;;;;;;;4917982;28;19969;-64
2022/07/03 14:25:25;;;;;;;;;;;;;;;;;;4918448;28;20264;-63
2022/07/03 14:36:35;;;;;;;;;;;;;;;;;;4917494;28;20376;-62
2022/07/03 14:39:03;;;;;;;;;;;;;;;;;;4921307;28;19926;-61
2022/07/03 14:41:31;;;;;;;;;;;;;;;;;;4913536;28;20806;-62
2022/07/03 14:43:57;;;;;;;;;;;;;;;;;;4920485;28;19923;-61
2022/07/03 14:46:24;;;;;;;;;;;;;;;;;;4908985;29;19919;-61
2022/07/03 14:48:49;;;;;;;;;;;;;;;;;;4922442;28;19929;-61
2022/07/03 14:51:15;;;;;;;;;;;;;;;;;;4916726;28;20423;-61
2022/07/03 14:53:40;;;;;;;;;;;;;;;;;;4918190;28;20456;-59
2022/07/03 14:56:06;;;;;;;;;;;;;;;;;;4918920;28;19923;-59
2022/07/03 14:58:33;;;;;;;;;;;;;;;;;;4917029;28;20291;-61
2022/07/03 15:00:59;;;;;;;;;;;;;;;;;;4901297;29;19989;-59
2022/07/03 15:06:40;;;;;;;;;;;;;;;;;;4921461;28;19926;-60
2022/07/03 15:09:05;;;;;;;;;;;;;;;;;;4915361;28;19923;-60
2022/07/03 15:14:24;;;;;;;;;;;;;;;;;;4919952;28;19930;-59
2022/07/03 15:16:49;;;;;;;;;;;;;;;;;;4935047;28;20268;-59
2022/07/03 15:19:15;;;;;;;;;;;;;;;;;;4915125;28;19968;-61
2022/07/03 15:21:40;;;;;;;;;;;;;;;;;;4922104;28;21496;-62
2022/07/03 15:24:11;;;;;;;;;;;;;;;;;;4925412;28;19929;-60
2022/07/03 15:26:36;;;;;;;;;;;;;;;;;;4919455;28;20044;-61
2022/07/03 15:29:06;;;;;;;;;;;;;;;;;;4924730;28;19923;-61
2022/07/03 15:31:33;;;;;;;;;;;;;;;;;;4922654;28;19926;-60
2022/07/03 15:33:59;;;;;;;;;;;;;;;;;;4921503;28;20570;-60
2022/07/03 15:36:24;;;;;;;;;;;;;;;;;;4921137;28;19929;-60
2022/07/03 15:38:58;;;;;;;;;;;;;;;;;;4927702;28;19933;-60
2022/07/03 15:41:24;;;;;;;;;;;;;;;;;;4921999;28;21183;-61
2022/07/03 15:43:49;;;;;;;;;;;;;;;;;;4917553;28;20037;-61
2022/07/03 15:46:16;;;;;;;;;;;;;;;;;;4927453;29;20525;-60
2022/07/03 15:52:01;;;;;;;;;;;;;;;;;;4925410;28;19981;-61
2022/07/03 15:54:44;;;;;;;;;;;;;;;;;;4924318;28;20446;-61
2022/07/03 15:57:30;;;;;;;;;;;;;;;;;;4923240;29;20468;-61
2022/07/03 15:59:56;;;;;;;;;;;;;;;;;;4922246;28;20068;-65
2022/07/03 16:05:39;;;;;;;;;;;;;;;;;;4919236;29;19929;-62
2022/07/03 16:11:25;;;;;;;;;;;;;;;;;;4917019;28;20431;-60
2022/07/03 16:13:55;;;;;;;;;;;;;;;;;;4900317;28;20609;-61
2022/07/03 16:19:37;;;;;;;;;;;;;;;;;;4920567;28;19926;-61
2022/07/03 16:22:03;;;;;;;;;;;;;;;;;;4921663;28;19923;-60
2022/07/03 16:24:28;;;;;;;;;;;;;;;;;;4907607;28;21895;-61
2022/07/03 16:26:53;;;;;;;;;;;;;;;;;;4925714;28;20351;-60
2022/07/03 16:29:18;;;;;;;;;;;;;;;;;;4927317;28;20824;-61
2022/07/03 16:31:44;;;;;;;;;;;;;;;;;;4928562;28;19922;-59
2022/07/03 16:34:09;;;;;;;;;;;;;;;;;;4925397;28;19929;-59
2022/07/03 16:36:34;;;;;;;;;;;;;;;;;;4926895;28;19922;-61
2022/07/03 16:39:02;;;;;;;;;;;;;;;;;;4927447;28;19922;-61
2022/07/03 16:41:27;;;;;;;;;;;;;;;;;;4924783;28;19926;-61
2022/07/03 16:47:11;;;;;;;;;;;;;;;;;;4926239;28;21970;-59
2022/07/03 16:49:39;;;;;;;;;;;;;;;;;;4921748;28;20009;-61
2022/07/03 16:52:05;;;;;;;;;;;;;;;;;;4922214;28;19926;-61
2022/07/03 16:57:56;;;;;;;;;;;;;;;;;;4923100;28;19929;-60
2022/07/03 17:00:24;;;;;;;;;;;;;;;;;;4925843;28;19922;-60
2022/07/03 17:02:49;;;;;;;;;;;;;;;;;;4922592;28;19989;-60
2022/07/03 17:05:19;;;;;;;;;;;;;;;;;;4923561;28;20301;-60
2022/07/03 17:07:45;;;;;;;;;;;;;;;;;;4910782;28;21873;-60
2022/07/03 17:10:15;;;;;;;;;;;;;;;;;;4923740;28;19923;-61
2022/07/03 17:12:43;;;;;;;;;;;;;;;;;;4922431;28;20417;-61
2022/07/03 17:15:08;;;;;;;;;;;;;;;;;;4922701;28;19926;-62
2022/07/03 17:17:34;;;;;;;;;;;;;;;;;;4926559;28;19922;-62
2022/07/03 17:19:59;;;;;;;;;;;;;;;;;;4911023;29;19918;-61
2022/07/03 17:22:27;;;;;;;;;;;;;;;;;;4924076;28;19929;-61
2022/07/03 17:24:57;;;;;;;;;;;;;;;;;;4926321;28;20014;-62
2022/07/03 17:27:24;;;;;;;;;;;;;;;;;;4925152;28;19922;-69
2022/07/03 17:29:52;;;;;;;;;;;;;;;;;;4919475;28;19931;-62
2022/07/03 17:32:20;;;;;;;;;;;;;;;;;;4921450;28;19922;-62
2022/07/03 17:34:45;;;;;;;;;;;;;;;;;;4919759;28;19928;-63
2022/07/03 17:37:10;;;;;;;;;;;;;;;;;;4926371;28;19922;-62
2022/07/03 17:39:35;;;;;;;;;;;;;;;;;;4926472;29;20050;-63
2022/07/03 17:42:05;;;;;;;;;;;;;;;;;;4925479;28;20373;-63
2022/07/03 17:44:30;;;;;;;;;;;;;;;;;;4926551;28;20355;-63
2022/07/03 17:47:01;;;;;;;;;;;;;;;;;;4925037;29;19994;-64
2022/07/03 17:49:26;;;;;;;;;;;;;;;;;;4925929;28;20485;-63
2022/07/03 17:51:52;;;;;;;;;;;;;;;;;;4924729;29;20905;-62
2022/07/03 17:54:17;;;;;;;;;;;;;;;;;;4916841;28;20536;-61
2022/07/03 17:56:45;;;;;;;;;;;;;;;;;;4921481;28;19933;-61
2022/07/03 17:59:10;;;;;;;;;;;;;;;;;;4925987;28;20417;-62
2022/07/03 18:01:35;;;;;;;;;;;;;;;;;;4926835;28;19918;-61
2022/07/03 18:04:02;;;;;;;;;;;;;;;;;;4925603;28;19925;-61
2022/07/03 18:06:29;;;;;;;;;;;;;;;;;;4911440;29;19927;-62
2022/07/03 18:08:56;;;;;;;;;;;;;;;;;;4923929;28;19973;-61
2022/07/03 18:18:01;;;;;;;;;;;;;;;;;;4925395;28;20507;-62
2022/07/03 18:20:32;;;;;;;;;;;;;;;;;;4920471;28;21708;-61
2022/07/03 18:22:57;;;;;;;;;;;;;;;;;;4927082;28;19953;-60
2022/07/03 18:25:24;;;;;;;;;;;;;;;;;;4911878;29;19957;-59
2022/07/03 18:27:54;;;;;;;;;;;;;;;;;;4922893;28;20018;-61
2022/07/03 18:33:10;;;;;;;;;;;;;;;;;;4927251;28;20472;-61
2022/07/03 18:35:41;;;;;;;;;;;;;;;;;;4926135;28;19923;-61
2022/07/03 18:38:08;;;;;;;;;;;;;;;;;;4928028;28;19976;-59
2022/07/03 18:40:34;;;;;;;;;;;;;;;;;;4924520;28;20581;-60
2022/07/03 18:43:02;;;;;;;;;;;;;;;;;;4923363;28;19922;-59
2022/07/03 18:45:27;;;;;;;;;;;;;;;;;;4924942;28;19949;-59
2022/07/03 18:47:52;;;;;;;;;;;;;;;;;;4923957;28;20390;-60
2022/07/03 18:50:18;;;;;;;;;;;;;;;;;;4906525;29;19961;-59